Time;durP1;ratioP1;P1;durP2;ratioP2;P2;SDS_P1;SDS_P2;PMS_P1;PMS_P2;Temp;Humidity;BMP_temperature;BMP_pressure;BME280_temperature;BME280_humidity;BME280_pressure;Samples;Min_cycle;Max_cycle;Signal;HPM_P1;HPM_P2
2022/04/26 03:36:07;;;;;;;;;;;7.90;99.90;;;;;;4993419;28;19975;-76
2022/04/26 03:38:34;;;;;;;;;;;7.80;99.90;;;;;;5002624;28;19926;-76
2022/04/26 03:41:01;;;;;;;;;;;7.90;99.90;;;;;;4989306;28;20304;-74
2022/04/26 03:43:27;;;;;;;;;;;7.90;99.90;;;;;;4988811;28;20265;-74
2022/04/26 03:45:54;;;;;;;;;;;7.90;99.90;;;;;;4981421;28;19937;-75
2022/04/26 03:48:24;;;;;;;;;;;7.90;99.90;;;;;;5003652;28;19932;-74
2022/04/26 03:50:52;;;;;;;;;;;7.90;99.90;;;;;;5011852;28;20296;-75
2022/04/26 03:53:19;;;;;;;;;;;7.90;99.90;;;;;;5031480;28;20381;-75
2022/04/26 03:55:45;;;;;;;;;;;7.90;99.90;;;;;;5017289;28;20401;-75
2022/04/26 03:58:12;;;;;;;;;;;7.90;99.90;;;;;;4985811;28;20009;-76
2022/04/26 04:00:39;;;;;;;;;;;7.90;99.90;;;;;;4979669;28;20053;-76
2022/04/26 04:03:05;;;;;;;;;;;8.00;99.90;;;;;;4994647;28;19932;-79
2022/04/26 04:05:32;;;;;;;;;;;8.00;99.90;;;;;;4989483;28;20020;-75
2022/04/26 04:08:00;;;;;;;;;;;8.00;99.90;;;;;;5013656;28;19926;-75
2022/04/26 04:10:27;;;;;;;;;;;8.00;99.90;;;;;;4984949;28;19965;-75
2022/04/26 04:12:54;;;;;;;;;;;8.00;99.90;;;;;;4992363;28;20020;-76
2022/04/26 04:15:20;;;;;;;;;;;8.00;99.90;;;;;;5001118;28;19932;-75
2022/04/26 04:17:47;;;;;;;;;;;8.00;99.80;;;;;;4999411;28;19933;-76
2022/04/26 04:20:15;;;;;;;;;;;8.00;99.60;;;;;;4982674;28;20673;-76
2022/04/26 04:22:42;;;;;;;;;;;8.00;99.30;;;;;;4983560;28;20404;-76
2022/04/26 04:25:10;;;;;;;;;;;8.00;99.40;;;;;;4983539;28;20407;-75
2022/04/26 04:27:37;;;;;;;;;;;8.10;99.20;;;;;;4992630;28;19932;-75
2022/04/26 04:30:04;;;;;;;;;;;8.10;98.90;;;;;;4997968;28;19940;-75
2022/04/26 04:32:31;;;;;;;;;;;8.10;98.50;;;;;;4973874;28;20022;-75
2022/04/26 04:34:57;;;;;;;;;;;8.10;98.60;;;;;;4984729;28;20008;-74
2022/04/26 04:37:24;;;;;;;;;;;8.10;98.00;;;;;;5002435;28;19932;-74
2022/04/26 04:39:51;;;;;;;;;;;8.20;98.00;;;;;;4970666;28;19932;-74
2022/04/26 04:42:21;;;;;;;;;;;8.20;97.60;;;;;;5011564;28;19928;-74
2022/04/26 04:44:48;;;;;;;;;;;8.10;97.80;;;;;;4979848;28;19930;-74
2022/04/26 04:47:14;;;;;;;;;;;8.20;97.20;;;;;;4975766;28;19926;-74
2022/04/26 04:49:41;;;;;;;;;;;8.10;97.10;;;;;;5009793;28;20421;-74
2022/04/26 04:52:08;;;;;;;;;;;8.20;97.30;;;;;;4985355;28;20381;-76
2022/04/26 04:54:35;;;;;;;;;;;8.20;97.60;;;;;;5028090;28;20366;-74
2022/04/26 04:57:03;;;;;;;;;;;8.20;97.50;;;;;;4989586;28;19926;-74
2022/04/26 04:59:31;;;;;;;;;;;8.20;97.40;;;;;;4984701;28;20028;-75
2022/04/26 05:01:58;;;;;;;;;;;8.20;97.30;;;;;;4989897;28;19932;-75
2022/04/26 05:04:24;;;;;;;;;;;8.20;97.20;;;;;;4979255;28;20021;-75
2022/04/26 05:06:51;;;;;;;;;;;8.20;97.30;;;;;;4982599;28;20033;-76
2022/04/26 05:09:18;;;;;;;;;;;8.20;97.10;;;;;;4984020;28;19968;-76
2022/04/26 05:11:44;;;;;;;;;;;8.20;97.30;;;;;;4984274;28;19948;-76
2022/04/26 05:14:11;;;;;;;;;;;8.10;97.20;;;;;;4990243;28;20022;-75
2022/04/26 05:16:39;;;;;;;;;;;8.20;97.50;;;;;;4980888;28;19936;-75
2022/04/26 05:19:06;;;;;;;;;;;8.20;97.40;;;;;;4998689;28;20018;-75
2022/04/26 05:21:32;;;;;;;;;;;8.20;97.40;;;;;;5013155;28;19926;-75
2022/04/26 05:26:43;;;;;;;;;;;8.20;97.60;;;;;;4978700;28;20025;-77
2022/04/26 05:29:10;;;;;;;;;;;8.20;97.70;;;;;;4975557;28;19973;-75
2022/04/26 05:31:37;;;;;;;;;;;8.20;97.40;;;;;;4978907;28;19934;-75
2022/04/26 05:34:05;;;;;;;;;;;8.20;97.60;;;;;;4973424;28;20006;-76
2022/04/26 05:36:31;;;;;;;;;;;8.20;97.40;;;;;;4982491;28;19926;-75
2022/04/26 05:38:59;;;;;;;;;;;8.20;97.40;;;;;;4974362;28;20068;-76
2022/04/26 05:41:26;;;;;;;;;;;8.20;97.40;;;;;;4990016;28;19932;-75
2022/04/26 05:43:57;;;;;;;;;;;8.30;97.50;;;;;;4978381;28;20308;-75
2022/04/26 05:46:24;;;;;;;;;;;8.30;97.10;;;;;;4972986;28;20383;-75
2022/04/26 05:48:51;;;;;;;;;;;8.30;96.80;;;;;;4977643;28;19948;-75
2022/04/26 05:51:19;;;;;;;;;;;8.40;96.90;;;;;;4980608;28;20330;-75
2022/04/26 05:53:45;;;;;;;;;;;8.40;97.00;;;;;;4978359;28;19964;-75
2022/04/26 05:56:12;;;;;;;;;;;8.40;96.80;;;;;;4984625;28;20392;-76
2022/04/26 05:58:39;;;;;;;;;;;8.50;96.50;;;;;;4981991;28;19932;-75
2022/04/26 06:01:06;;;;;;;;;;;8.50;96.00;;;;;;4974148;28;19926;-75
2022/04/26 06:03:33;;;;;;;;;;;8.60;96.00;;;;;;4985295;28;20012;-74
2022/04/26 06:06:00;;;;;;;;;;;8.60;95.80;;;;;;5021505;28;20375;-74
2022/04/26 06:08:28;;;;;;;;;;;8.60;95.90;;;;;;5017689;28;19934;-75
2022/04/26 06:10:55;;;;;;;;;;;8.70;95.70;;;;;;5055837;28;20280;-76
2022/04/26 06:13:21;;;;;;;;;;;8.70;95.30;;;;;;5017284;28;20016;-76
2022/04/26 06:15:48;;;;;;;;;;;8.70;95.50;;;;;;5008498;28;20288;-76
2022/04/26 06:18:15;;;;;;;;;;;8.80;95.70;;;;;;5017835;28;20403;-76
2022/04/26 06:20:41;;;;;;;;;;;8.90;95.00;;;;;;5041860;28;19936;-76
2022/04/26 06:23:09;;;;;;;;;;;9.10;94.90;;;;;;5019967;28;19933;-74
2022/04/26 06:25:39;;;;;;;;;;;9.10;94.60;;;;;;4988514;28;20449;-72
2022/04/26 06:28:08;;;;;;;;;;;9.10;94.80;;;;;;5036893;28;19950;-71
2022/04/26 06:30:36;;;;;;;;;;;9.10;94.80;;;;;;5024072;28;19969;-71
2022/04/26 06:33:03;;;;;;;;;;;9.30;95.10;;;;;;4996659;28;20013;-72
2022/04/26 06:35:30;;;;;;;;;;;9.50;94.80;;;;;;4989724;28;19933;-73
2022/04/26 06:37:58;;;;;;;;;;;9.50;93.50;;;;;;5050495;28;19932;-73
2022/04/26 06:40:24;;;;;;;;;;;9.50;93.70;;;;;;5005325;28;20434;-73
2022/04/26 06:42:52;;;;;;;;;;;9.60;94.00;;;;;;5035439;28;19924;-73
2022/04/26 06:45:19;;;;;;;;;;;9.50;93.80;;;;;;5015071;28;20381;-72
2022/04/26 06:47:49;;;;;;;;;;;9.40;94.20;;;;;;4982910;28;20486;-73
2022/04/26 06:50:16;;;;;;;;;;;9.50;94.60;;;;;;4984719;28;19934;-72
2022/04/26 06:52:42;;;;;;;;;;;9.50;94.30;;;;;;4983444;28;20428;-72
2022/04/26 06:55:09;;;;;;;;;;;9.50;94.80;;;;;;4980501;28;20260;-73
2022/04/26 06:57:37;;;;;;;;;;;9.60;94.90;;;;;;4980517;28;19926;-74
2022/04/26 07:00:07;;;;;;;;;;;9.50;95.40;;;;;;4983457;28;19933;-71
2022/04/26 07:02:33;;;;;;;;;;;9.50;95.70;;;;;;4983576;28;19987;-71
2022/04/26 07:05:00;;;;;;;;;;;9.50;95.60;;;;;;4976362;28;19926;-71
2022/04/26 07:07:27;;;;;;;;;;;9.40;96.20;;;;;;4984611;28;19932;-72
2022/04/26 07:09:54;;;;;;;;;;;9.40;96.90;;;;;;4984422;28;20377;-74
2022/04/26 07:12:20;;;;;;;;;;;9.40;97.00;;;;;;4980194;28;20409;-73
2022/04/26 07:14:47;;;;;;;;;;;9.40;97.00;;;;;;4982431;28;19969;-73
2022/04/26 07:17:17;;;;;;;;;;;9.40;97.50;;;;;;4979522;28;19949;-74
2022/04/26 07:19:43;;;;;;;;;;;9.50;97.40;;;;;;4984705;28;19934;-74
2022/04/26 07:22:10;;;;;;;;;;;9.50;96.90;;;;;;4981089;28;19926;-71
2022/04/26 07:24:37;;;;;;;;;;;9.50;97.00;;;;;;4986926;28;20073;-73
2022/04/26 07:27:04;;;;;;;;;;;9.50;96.60;;;;;;4986423;28;19976;-73
2022/04/26 07:29:30;;;;;;;;;;;9.60;97.10;;;;;;4981920;28;19925;-75
2022/04/26 07:32:01;;;;;;;;;;;9.70;97.30;;;;;;4985370;28;20281;-75
2022/04/26 07:34:29;;;;;;;;;;;9.70;96.50;;;;;;4981579;28;20357;-73
2022/04/26 07:36:59;;;;;;;;;;;9.80;96.50;;;;;;4983094;28;19972;-74
2022/04/26 07:39:26;;;;;;;;;;;9.70;96.60;;;;;;4983703;28;20013;-72
2022/04/26 07:41:52;;;;;;;;;;;9.80;96.50;;;;;;4976974;28;20308;-73
2022/04/26 07:44:19;;;;;;;;;;;10.00;95.30;;;;;;4983504;28;19929;-73
2022/04/26 07:46:47;;;;;;;;;;;10.20;95.60;;;;;;4980934;28;20265;-73
2022/04/26 07:49:14;;;;;;;;;;;10.20;94.80;;;;;;4986778;28;20320;-73
2022/04/26 07:51:42;;;;;;;;;;;10.10;95.60;;;;;;4976106;28;20005;-72
2022/04/26 07:54:09;;;;;;;;;;;10.20;94.90;;;;;;4983597;28;19936;-74
2022/04/26 07:56:36;;;;;;;;;;;10.30;95.00;;;;;;4986287;28;19925;-73
2022/04/26 07:59:04;;;;;;;;;;;10.20;94.40;;;;;;4986143;28;19934;-74
2022/04/26 08:01:31;;;;;;;;;;;10.40;95.20;;;;;;4978536;28;21673;-74
2022/04/26 08:03:58;;;;;;;;;;;10.30;94.50;;;;;;4978375;28;19948;-76
2022/04/26 08:06:24;;;;;;;;;;;10.30;95.00;;;;;;4986008;28;19936;-75
2022/04/26 08:08:53;;;;;;;;;;;10.50;94.30;;;;;;4982365;28;19940;-75
2022/04/26 08:11:20;;;;;;;;;;;10.80;94.30;;;;;;4986085;28;19973;-75
2022/04/26 08:13:47;;;;;;;;;;;10.60;94.10;;;;;;4983251;28;20020;-75
2022/04/26 08:16:14;;;;;;;;;;;10.80;92.20;;;;;;4985787;28;19929;-71
2022/04/26 08:18:41;;;;;;;;;;;10.70;90.50;;;;;;4987547;28;20461;-71
2022/04/26 08:21:08;;;;;;;;;;;10.60;90.00;;;;;;4991358;28;19930;-71
2022/04/26 08:23:34;;;;;;;;;;;10.70;90.50;;;;;;4983522;28;19930;-71
2022/04/26 08:28:46;;;;;;;;;;;11.20;88.50;;;;;;4983842;28;20022;-72
2022/04/26 08:31:13;;;;;;;;;;;10.90;85.10;;;;;;4983887;28;20008;-74
2022/04/26 08:33:41;;;;;;;;;;;11.10;87.80;;;;;;4983351;28;20024;-71
2022/04/26 08:36:07;;;;;;;;;;;11.40;85.20;;;;;;4983395;28;19950;-71
2022/04/26 08:38:35;;;;;;;;;;;11.60;81.50;;;;;;4985952;28;19936;-71
2022/04/26 08:41:03;;;;;;;;;;;11.60;79.10;;;;;;4982466;28;20307;-71
2022/04/26 08:43:33;;;;;;;;;;;11.90;76.00;;;;;;4980834;28;19940;-69
2022/04/26 08:46:02;;;;;;;;;;;12.90;72.50;;;;;;4988155;28;19929;-69
2022/04/26 08:51:13;;;;;;;;;;;13.90;65.10;;;;;;4996024;28;20403;-69
2022/04/26 08:53:39;;;;;;;;;;;15.70;58.80;;;;;;4992897;28;20526;-68
2022/04/26 08:56:07;;;;;;;;;;;14.90;57.50;;;;;;4986577;28;20019;-68
2022/04/26 08:58:35;;;;;;;;;;;14.20;55.90;;;;;;4998452;28;19926;-70
2022/04/26 09:01:05;;;;;;;;;;;13.10;57.10;;;;;;4981102;28;19929;-71
2022/04/26 09:03:32;;;;;;;;;;;12.60;57.90;;;;;;4975450;28;19948;-71
2022/04/26 09:06:07;;;;;;;;;;;12.70;56.80;;;;;;4988310;28;20253;-71
2022/04/26 09:08:34;;;;;;;;;;;12.00;56.50;;;;;;4983622;28;19969;-72
2022/04/26 09:11:01;;;;;;;;;;;11.90;58.80;;;;;;4987629;28;19934;-71
2022/04/26 09:13:37;;;;;;;;;;;12.10;58.00;;;;;;4983315;28;19925;-72
2022/04/26 09:16:06;;;;;;;;;;;13.20;58.40;;;;;;4990921;28;19952;-71
2022/04/26 09:18:32;;;;;;;;;;;13.10;56.20;;;;;;4987859;28;22464;-72
2022/04/26 09:20:59;;;;;;;;;;;12.40;59.00;;;;;;4980642;28;19926;-72
2022/04/26 09:23:27;;;;;;;;;;;12.20;53.90;;;;;;4978679;28;19978;-72
2022/04/26 09:25:54;;;;;;;;;;;12.50;56.20;;;;;;4981346;28;19934;-72
2022/04/26 09:28:22;;;;;;;;;;;13.10;55.70;;;;;;4978581;28;19933;-73
2022/04/26 09:30:51;;;;;;;;;;;12.70;54.40;;;;;;4980121;28;19945;-73
2022/04/26 09:33:31;;;;;;;;;;;13.60;51.70;;;;;;4974273;28;19933;-72
2022/04/26 09:36:00;;;;;;;;;;;13.80;50.50;;;;;;4977594;28;19930;-71
2022/04/26 09:38:29;;;;;;;;;;;13.50;53.30;;;;;;4983156;28;20386;-71
2022/04/26 09:40:59;;;;;;;;;;;13.60;53.40;;;;;;4978138;28;19930;-72
2022/04/26 09:43:26;;;;;;;;;;;13.60;51.70;;;;;;4977230;28;19940;-73
2022/04/26 09:45:56;;;;;;;;;;;13.90;53.60;;;;;;4975446;28;19937;-73
2022/04/26 09:48:25;;;;;;;;;;;13.90;52.90;;;;;;4981279;28;19934;-71
2022/04/26 09:50:56;;;;;;;;;;;13.60;54.30;;;;;;4977903;28;20016;-71
2022/04/26 09:53:23;;;;;;;;;;;14.10;54.60;;;;;;4979581;28;20392;-73
2022/04/26 09:55:50;;;;;;;;;;;14.10;53.10;;;;;;4978656;28;20461;-71
2022/04/26 09:58:18;;;;;;;;;;;14.40;52.70;;;;;;4982671;28;19926;-71
2022/04/26 10:00:47;;;;;;;;;;;13.50;50.10;;;;;;4978867;28;20331;-70
2022/04/26 10:03:16;;;;;;;;;;;13.10;51.40;;;;;;4985200;28;19929;-71
2022/04/26 10:05:45;;;;;;;;;;;12.30;51.10;;;;;;4985806;28;19927;-72
2022/04/26 10:08:14;;;;;;;;;;;12.80;50.20;;;;;;4986919;28;20376;-73
2022/04/26 10:10:41;;;;;;;;;;;13.20;53.80;;;;;;4987924;28;20393;-73
2022/04/26 10:15:52;;;;;;;;;;;12.60;51.10;;;;;;4986211;28;20072;-73
2022/04/26 10:18:33;;;;;;;;;;;12.80;53.40;;;;;;4985043;28;19933;-73
2022/04/26 10:21:00;;;;;;;;;;;12.80;48.70;;;;;;4984882;28;19926;-72
2022/04/26 10:23:27;;;;;;;;;;;12.70;53.60;;;;;;4984997;28;19934;-74
2022/04/26 10:26:12;;;;;;;;;;;13.20;53.60;;;;;;4990587;28;19969;-72
2022/04/26 10:28:49;;;;;;;;;;;13.10;52.70;;;;;;4998435;28;19924;-74
2022/04/26 10:31:17;;;;;;;;;;;12.70;50.90;;;;;;4985516;28;20022;-72
2022/04/26 10:33:46;;;;;;;;;;;12.50;52.50;;;;;;4982384;28;19925;-72
2022/04/26 10:36:32;;;;;;;;;;;12.90;54.00;;;;;;4977650;28;19985;-71
2022/04/26 10:39:17;;;;;;;;;;;12.70;52.90;;;;;;4977652;28;19934;-71
2022/04/26 10:41:45;;;;;;;;;;;12.70;55.20;;;;;;4982850;28;19932;-71
2022/04/26 10:44:26;;;;;;;;;;;12.30;55.20;;;;;;4974384;28;19926;-73
2022/04/26 10:47:12;;;;;;;;;;;12.30;54.00;;;;;;4997673;28;19987;-71
2022/04/26 10:49:43;;;;;;;;;;;12.30;55.30;;;;;;4993051;28;19926;-72
2022/04/26 10:52:24;;;;;;;;;;;12.00;51.20;;;;;;4984879;28;19926;-72
2022/04/26 10:55:03;;;;;;;;;;;12.40;54.30;;;;;;4994159;28;19932;-72
2022/04/26 10:57:30;;;;;;;;;;;12.80;52.90;;;;;;4986033;28;19926;-71
2022/04/26 10:59:59;;;;;;;;;;;13.10;51.60;;;;;;4977069;28;19926;-72
2022/04/26 11:02:27;;;;;;;;;;;13.40;51.90;;;;;;4980253;28;19926;-72
2022/04/26 11:04:57;;;;;;;;;;;13.70;46.10;;;;;;4986478;28;19930;-72
2022/04/26 11:07:26;;;;;;;;;;;13.70;48.30;;;;;;4982057;28;19933;-73
2022/04/26 11:09:54;;;;;;;;;;;13.50;50.40;;;;;;4979402;28;20400;-72
2022/04/26 11:12:21;;;;;;;;;;;13.30;46.30;;;;;;4989047;28;19934;-71
2022/04/26 11:14:48;;;;;;;;;;;13.50;44.60;;;;;;4985515;28;20008;-71
2022/04/26 11:17:15;;;;;;;;;;;13.30;45.40;;;;;;4982526;28;19933;-71
2022/04/26 11:19:48;;;;;;;;;;;13.10;47.60;;;;;;4978915;28;20633;-71
2022/04/26 11:22:16;;;;;;;;;;;13.40;47.70;;;;;;4979640;28;19945;-72
2022/04/26 11:30:17;;;;;;;;;;;13.30;48.30;;;;;;4977618;28;19953;-74
2022/04/26 11:32:44;;;;;;;;;;;14.00;45.10;;;;;;4980874;28;19933;-73
2022/04/26 11:35:11;;;;;;;;;;;14.00;46.40;;;;;;4985649;28;19969;-72
2022/04/26 11:37:45;;;;;;;;;;;14.20;49.10;;;;;;4986238;28;19933;-74
2022/04/26 11:40:12;;;;;;;;;;;13.60;45.60;;;;;;4985775;28;20395;-74
2022/04/26 11:42:39;;;;;;;;;;;13.90;45.10;;;;;;4982158;28;19927;-73
2022/04/26 11:45:06;;;;;;;;;;;14.60;45.60;;;;;;4980142;28;19926;-72
2022/04/26 11:47:37;;;;;;;;;;;15.30;42.40;;;;;;4983613;28;19926;-72
2022/04/26 11:50:08;;;;;;;;;;;14.50;44.00;;;;;;4984830;28;20016;-72
2022/04/26 11:52:35;;;;;;;;;;;14.80;41.80;;;;;;4986865;28;20008;-72
2022/04/26 11:55:04;;;;;;;;;;;14.90;37.40;;;;;;4982167;28;19945;-71
2022/04/26 11:57:31;;;;;;;;;;;15.50;39.60;;;;;;4989249;28;19926;-72
2022/04/26 11:59:58;;;;;;;;;;;15.60;39.60;;;;;;5024276;28;19924;-71
2022/04/26 12:02:25;;;;;;;;;;;14.80;42.50;;;;;;4978158;28;20377;-72
2022/04/26 12:04:52;;;;;;;;;;;14.60;41.50;;;;;;4988414;28;20274;-72
2022/04/26 12:07:19;;;;;;;;;;;14.00;40.20;;;;;;4988998;28;19932;-72
2022/04/26 12:09:45;;;;;;;;;;;14.00;41.90;;;;;;4979059;28;19926;-74
2022/04/26 12:12:14;;;;;;;;;;;14.10;43.60;;;;;;5004641;28;19932;-72
2022/04/26 12:14:42;;;;;;;;;;;14.00;40.50;;;;;;4982603;28;19934;-72
2022/04/26 12:17:17;;;;;;;;;;;14.10;42.20;;;;;;4988822;28;19965;-72
2022/04/26 12:19:45;;;;;;;;;;;14.20;39.80;;;;;;4996366;28;19940;-72
2022/04/26 12:22:12;;;;;;;;;;;14.40;39.20;;;;;;4981867;28;19933;-72
2022/04/26 12:24:45;;;;;;;;;;;14.50;38.60;;;;;;5023222;28;19972;-72
2022/04/26 12:27:14;;;;;;;;;;;14.70;40.00;;;;;;5026975;28;20265;-72
2022/04/26 12:29:41;;;;;;;;;;;14.40;38.60;;;;;;5019182;28;19981;-72
2022/04/26 12:32:09;;;;;;;;;;;14.20;38.90;;;;;;4984166;28;20013;-72
2022/04/26 12:34:36;;;;;;;;;;;14.30;38.20;;;;;;5005519;28;19926;-72
2022/04/26 12:37:06;;;;;;;;;;;14.30;37.80;;;;;;4982820;28;20403;-71
2022/04/26 12:39:43;;;;;;;;;;;14.30;39.60;;;;;;4979105;28;19926;-72
2022/04/26 12:42:12;;;;;;;;;;;14.50;40.50;;;;;;4977827;28;19934;-73
2022/04/26 12:44:50;;;;;;;;;;;14.60;41.10;;;;;;4982427;28;19926;-72
2022/04/26 12:52:48;;;;;;;;;;;14.30;37.20;;;;;;4982402;28;19995;-72
2022/04/26 12:55:14;;;;;;;;;;;14.30;35.90;;;;;;4980990;28;20388;-72
2022/04/26 12:57:48;;;;;;;;;;;14.30;36.30;;;;;;4979744;28;19926;-70
2022/04/26 13:00:18;;;;;;;;;;;14.30;35.20;;;;;;4979101;28;19926;-72
2022/04/26 13:02:46;;;;;;;;;;;14.50;37.20;;;;;;4975368;28;19938;-74
2022/04/26 13:05:13;;;;;;;;;;;14.50;34.40;;;;;;4981175;28;19932;-73
2022/04/26 13:07:39;;;;;;;;;;;14.60;33.20;;;;;;4982042;28;19930;-76
2022/04/26 13:10:07;;;;;;;;;;;15.00;33.20;;;;;;4976984;28;19934;-72
2022/04/26 13:12:33;;;;;;;;;;;14.90;32.90;;;;;;4981122;28;19973;-76
2022/04/26 13:15:00;;;;;;;;;;;15.10;34.40;;;;;;4976782;28;19965;-74
2022/04/26 13:17:28;;;;;;;;;;;15.30;32.20;;;;;;4977206;28;19944;-74
2022/04/26 13:19:55;;;;;;;;;;;15.40;32.30;;;;;;4979858;28;19934;-74
2022/04/26 13:22:22;;;;;;;;;;;15.90;31.80;;;;;;4983725;28;20305;-74
2022/04/26 13:24:50;;;;;;;;;;;15.70;29.90;;;;;;4977285;28;19930;-74
2022/04/26 13:27:18;;;;;;;;;;;15.10;33.00;;;;;;4983366;28;20044;-72
2022/04/26 13:29:45;;;;;;;;;;;15.00;32.60;;;;;;4976531;28;19995;-72
2022/04/26 13:32:11;;;;;;;;;;;15.50;30.80;;;;;;4980635;28;20227;-72
2022/04/26 13:34:39;;;;;;;;;;;15.50;30.50;;;;;;4977107;28;19992;-72
2022/04/26 13:37:07;;;;;;;;;;;15.60;30.20;;;;;;4975414;28;20017;-74
2022/04/26 13:39:35;;;;;;;;;;;15.40;30.50;;;;;;4980740;28;19926;-72
2022/04/26 13:42:01;;;;;;;;;;;15.50;30.50;;;;;;4978802;28;19926;-73
2022/04/26 13:44:28;;;;;;;;;;;15.30;31.90;;;;;;4983014;28;20025;-72
2022/04/26 13:46:57;;;;;;;;;;;15.10;32.30;;;;;;4982193;28;20069;-72
2022/04/26 13:49:24;;;;;;;;;;;14.90;33.30;;;;;;4978260;28;19937;-72
2022/04/26 13:51:52;;;;;;;;;;;15.10;33.70;;;;;;4986248;28;19926;-72
2022/04/26 13:54:19;;;;;;;;;;;15.10;32.00;;;;;;4988217;28;19959;-73
2022/04/26 13:56:49;;;;;;;;;;;15.20;32.40;;;;;;4985021;28;19960;-71
2022/04/26 13:59:16;;;;;;;;;;;15.00;33.10;;;;;;4978553;28;19930;-72
2022/04/26 14:01:43;;;;;;;;;;;15.40;32.50;;;;;;4977460;28;20024;-74
2022/04/26 14:04:09;;;;;;;;;;;15.60;33.30;;;;;;4974341;28;19934;-72
2022/04/26 14:06:36;;;;;;;;;;;15.60;32.00;;;;;;4976629;28;19933;-73
2022/04/26 14:09:04;;;;;;;;;;;15.40;34.90;;;;;;4982000;28;20014;-73
2022/04/26 14:11:31;;;;;;;;;;;15.90;33.30;;;;;;4982912;28;19937;-72
2022/04/26 14:22:17;;;;;;;;;;;15.80;32.30;;;;;;4982209;28;20023;-72
2022/04/26 14:24:52;;;;;;;;;;;15.50;32.90;;;;;;4978723;28;20459;-72
2022/04/26 14:27:20;;;;;;;;;;;15.40;32.60;;;;;;4979466;28;19949;-71
2022/04/26 14:29:47;;;;;;;;;;;15.60;33.20;;;;;;4980807;28;19937;-70
2022/04/26 14:32:15;;;;;;;;;;;15.60;32.30;;;;;;4977820;28;19926;-71
2022/04/26 14:34:42;;;;;;;;;;;15.80;32.20;;;;;;4977193;28;19988;-73
2022/04/26 14:37:09;;;;;;;;;;;15.80;32.40;;;;;;4982096;28;19926;-73
2022/04/26 14:39:37;;;;;;;;;;;15.30;31.60;;;;;;4977027;28;19952;-71
2022/04/26 14:42:05;;;;;;;;;;;14.80;33.10;;;;;;4990261;28;19926;-71
2022/04/26 14:44:32;;;;;;;;;;;14.20;33.90;;;;;;4982764;28;20016;-72
2022/04/26 14:46:59;;;;;;;;;;;14.10;33.40;;;;;;4980663;28;19992;-71
2022/04/26 14:49:32;;;;;;;;;;;14.00;34.10;;;;;;4980182;28;20114;-74
2022/04/26 14:51:59;;;;;;;;;;;14.70;33.80;;;;;;4978392;28;19937;-73
2022/04/26 14:54:25;;;;;;;;;;;15.20;31.70;;;;;;4976748;28;19933;-72
2022/04/26 14:56:52;;;;;;;;;;;15.30;30.90;;;;;;4983932;28;19952;-71
2022/04/26 14:59:21;;;;;;;;;;;14.80;31.70;;;;;;4982603;28;19964;-72
2022/04/26 15:01:49;;;;;;;;;;;15.00;31.20;;;;;;4981127;28;19926;-72
2022/04/26 15:04:17;;;;;;;;;;;15.10;31.20;;;;;;4977312;28;19926;-74
2022/04/26 15:06:43;;;;;;;;;;;14.90;31.70;;;;;;4986722;28;19930;-73
2022/04/26 15:17:22;;;;;;;;;;;14.20;34.00;;;;;;4980487;28;19933;-71
2022/04/26 15:19:50;;;;;;;;;;;14.20;34.00;;;;;;4979830;28;19934;-72
2022/04/26 15:22:19;;;;;;;;;;;14.40;33.40;;;;;;4979503;28;20370;-72
2022/04/26 15:24:45;;;;;;;;;;;14.70;34.20;;;;;;4979180;28;20409;-72
2022/04/26 15:27:13;;;;;;;;;;;14.30;33.40;;;;;;4982563;28;19926;-72
2022/04/26 15:29:41;;;;;;;;;;;14.40;32.80;;;;;;4980629;28;20348;-72
2022/04/26 15:32:08;;;;;;;;;;;14.60;33.10;;;;;;4981816;28;19968;-72
2022/04/26 15:34:35;;;;;;;;;;;14.70;33.00;;;;;;4976598;28;19931;-72
2022/04/26 15:37:08;;;;;;;;;;;14.60;32.60;;;;;;4981235;28;19969;-72
2022/04/26 15:39:35;;;;;;;;;;;14.40;34.30;;;;;;4985971;28;19929;-72
2022/04/26 15:42:02;;;;;;;;;;;14.10;34.80;;;;;;4983173;28;20396;-84
2022/04/26 15:44:29;;;;;;;;;;;14.30;34.40;;;;;;4985584;28;19925;-86
2022/04/26 15:46:58;;;;;;;;;;;14.40;33.80;;;;;;4982924;28;19926;-86
2022/04/26 15:49:25;;;;;;;;;;;14.30;34.40;;;;;;4985871;28;20037;-76
2022/04/26 15:51:54;;;;;;;;;;;14.40;35.90;;;;;;4984142;28;20623;-86
2022/04/26 15:54:20;;;;;;;;;;;14.60;35.10;;;;;;4986821;28;19929;-81
2022/04/26 15:56:47;;;;;;;;;;;14.30;35.50;;;;;;4971321;28;20030;-81
2022/04/26 15:59:14;;;;;;;;;;;14.20;35.50;;;;;;4973553;28;19984;-86
2022/04/26 16:01:41;;;;;;;;;;;14.20;35.20;;;;;;4982630;28;19936;-76
2022/04/26 16:04:10;;;;;;;;;;;14.20;34.60;;;;;;4977865;28;19932;-76
2022/04/26 16:06:38;;;;;;;;;;;14.20;35.00;;;;;;4975303;28;19995;-76
2022/04/26 16:20:34;;;;;;;;;;;13.30;39.50;;;;;;4972660;28;20017;-80
2022/04/26 16:23:02;;;;;;;;;;;13.30;38.50;;;;;;4975519;28;19926;-77
2022/04/26 16:25:29;;;;;;;;;;;13.40;38.00;;;;;;4979459;28;20400;-77
2022/04/26 16:27:57;;;;;;;;;;;13.40;37.90;;;;;;4992600;28;19926;-76
2022/04/26 16:30:25;;;;;;;;;;;13.20;39.00;;;;;;4987490;28;20016;-77
2022/04/26 16:32:51;;;;;;;;;;;13.40;38.10;;;;;;4980230;28;20454;-78
2022/04/26 16:35:18;;;;;;;;;;;13.30;37.90;;;;;;4974427;28;19926;-75
2022/04/26 16:37:46;;;;;;;;;;;13.20;38.30;;;;;;4977117;28;19933;-76
2022/04/26 16:40:15;;;;;;;;;;;12.90;38.90;;;;;;4972749;28;19980;-77
2022/04/26 16:42:42;;;;;;;;;;;12.90;39.40;;;;;;4981644;28;20298;-78
2022/04/26 16:45:09;;;;;;;;;;;12.80;40.50;;;;;;4973522;28;20373;-76
2022/04/26 16:47:36;;;;;;;;;;;12.90;40.20;;;;;;4970979;28;19933;-76
2022/04/26 16:50:04;;;;;;;;;;;12.80;39.00;;;;;;4972735;28;19926;-76
2022/04/26 16:52:34;;;;;;;;;;;12.70;39.40;;;;;;4971009;28;19945;-76
2022/04/26 16:55:02;;;;;;;;;;;12.60;39.70;;;;;;4978764;28;20284;-76
2022/04/26 16:57:29;;;;;;;;;;;12.60;39.10;;;;;;4988176;28;19925;-75
2022/04/26 16:59:57;;;;;;;;;;;12.60;39.10;;;;;;4987784;28;19930;-75
2022/04/26 17:02:24;;;;;;;;;;;12.50;39.80;;;;;;4988856;28;19933;-78
2022/04/26 17:04:51;;;;;;;;;;;12.30;40.20;;;;;;4983154;28;22038;-76
2022/04/26 17:07:17;;;;;;;;;;;12.20;40.30;;;;;;4988407;28;19959;-80
2022/04/26 17:09:44;;;;;;;;;;;12.50;40.40;;;;;;4983250;28;19973;-80
2022/04/26 17:12:14;;;;;;;;;;;12.50;39.70;;;;;;4983189;28;19970;-82
2022/04/26 17:14:44;;;;;;;;;;;12.50;40.10;;;;;;4989113;28;20038;-80
2022/04/26 17:17:13;;;;;;;;;;;12.50;39.60;;;;;;4983038;28;19995;-81
2022/04/26 17:19:40;;;;;;;;;;;12.40;39.60;;;;;;4993428;28;19940;-81
2022/04/26 17:22:08;;;;;;;;;;;12.20;39.90;;;;;;4995020;28;19932;-85
2022/04/26 17:27:21;;;;;;;;;;;12.00;40.90;;;;;;4990010;28;19972;-81
2022/04/26 17:29:48;;;;;;;;;;;12.00;41.40;;;;;;4994744;28;19926;-81
2022/04/26 17:32:16;;;;;;;;;;;11.90;41.30;;;;;;5006436;28;19933;-81
2022/04/26 17:34:43;;;;;;;;;;;11.90;41.40;;;;;;5003865;28;19986;-81
2022/04/26 17:37:12;;;;;;;;;;;11.90;41.50;;;;;;4981989;28;20385;-83
2022/04/26 17:39:39;;;;;;;;;;;11.90;42.10;;;;;;4979943;28;20009;-84
2022/04/26 17:42:07;;;;;;;;;;;11.90;42.80;;;;;;4977881;28;19926;-86
2022/04/26 17:44:35;;;;;;;;;;;11.80;43.50;;;;;;4973806;28;20257;-85
2022/04/26 17:47:03;;;;;;;;;;;11.70;44.30;;;;;;4975062;28;19938;-82
2022/04/26 17:49:30;;;;;;;;;;;11.70;44.20;;;;;;4994311;28;19989;-80
2022/04/26 17:51:57;;;;;;;;;;;11.50;45.00;;;;;;5008671;28;19926;-79
2022/04/26 17:57:08;;;;;;;;;;;11.50;45.60;;;;;;4993594;28;19933;-82
2022/04/26 17:59:36;;;;;;;;;;;11.30;46.00;;;;;;4998674;28;19933;-84
2022/04/26 18:02:03;;;;;;;;;;;11.30;46.30;;;;;;4989002;28;19925;-82
2022/04/26 18:04:30;;;;;;;;;;;11.20;47.00;;;;;;5008288;28;20388;-79
2022/04/26 18:06:57;;;;;;;;;;;11.00;47.60;;;;;;5008307;28;19933;-80
2022/04/26 18:09:24;;;;;;;;;;;11.10;48.10;;;;;;4994758;28;19929;-81
2022/04/26 18:11:51;;;;;;;;;;;11.10;48.40;;;;;;4985833;28;20194;-83
2022/04/26 18:14:17;;;;;;;;;;;11.00;48.80;;;;;;4987764;28;20365;-82
2022/04/26 18:16:45;;;;;;;;;;;10.90;48.70;;;;;;4993476;28;19909;-81
2022/04/26 18:19:12;;;;;;;;;;;10.80;49.00;;;;;;5004274;28;19933;-80
2022/04/26 18:21:39;;;;;;;;;;;10.80;49.40;;;;;;4994241;28;19934;-79
2022/04/26 18:24:06;;;;;;;;;;;10.70;49.60;;;;;;5007825;28;19963;-79
2022/04/26 18:26:32;;;;;;;;;;;10.60;50.10;;;;;;5010623;28;19938;-80
2022/04/26 18:29:00;;;;;;;;;;;10.60;50.50;;;;;;5004255;28;19993;-83
2022/04/26 18:31:27;;;;;;;;;;;10.60;50.50;;;;;;4998481;28;19933;-82
2022/04/26 18:34:04;;;;;;;;;;;10.60;50.90;;;;;;5004485;28;19917;-79
2022/04/26 18:36:32;;;;;;;;;;;10.50;51.20;;;;;;5047062;28;19930;-80
2022/04/26 18:38:59;;;;;;;;;;;10.40;51.80;;;;;;4998650;28;20373;-81
2022/04/26 18:41:27;;;;;;;;;;;10.40;52.00;;;;;;5004692;28;19956;-80
2022/04/26 18:43:55;;;;;;;;;;;10.30;52.30;;;;;;5005663;28;19929;-79
2022/04/26 18:46:22;;;;;;;;;;;10.30;52.90;;;;;;5009692;28;19979;-79
2022/04/26 18:48:49;;;;;;;;;;;10.10;53.20;;;;;;5004236;28;19958;-79
2022/04/26 18:51:17;;;;;;;;;;;10.00;54.10;;;;;;5010607;28;19968;-78
2022/04/26 18:53:43;;;;;;;;;;;9.90;55.30;;;;;;5005992;28;19980;-81
2022/04/26 18:56:11;;;;;;;;;;;9.90;56.00;;;;;;5006883;28;19926;-81